Herrick, South Dakota
Current Conditions -  °F | °C
As of 3:53 AM on Friday 21 Nov 2014 (Local Time) from KICR Reporting Station
Clear Clear  
Wind Chill: 17°   Ceiling: Unl
Heat Index: 31°   Visibility: 10mi
Dew Point: 21°   Wind: 26mph
Humidity: 67%   Direction: 200°SSW
Pressure: 29.89"   Gusts: 38mph
Location:  43.11°N, 99.19°W
Report Text: KICR 210953Z AUTO 20023G33KT 10SM CLR M01/M06 A2989 RMK AO2 PK WND 20033/0945 SLP145 T10061061
Loading
Personal Weather Stations






























Interactive Weather Map New forecast layout! Learn more

10-Day Weather Forecast

Advertisements
Track Severe Weather on mobile